createdAt,value
2019-05-12T00:00:21.286Z,9.60
2019-05-12T00:02:49.890Z,10.90
2019-05-12T00:05:18.830Z,10.23
2019-05-12T00:07:48.622Z,9.60
2019-05-12T00:10:19.127Z,10.23
2019-05-12T00:12:48.489Z,9.47
2019-05-12T00:15:19.174Z,9.37
2019-05-12T00:17:48.479Z,9.70
2019-05-12T00:20:18.127Z,9.80
2019-05-12T00:22:48.995Z,10.03
2019-05-12T00:25:18.473Z,9.03
2019-05-12T00:27:48.539Z,9.33
2019-05-12T00:30:34.314Z,9.47
2019-05-12T00:33:03.563Z,9.53
2019-05-12T00:35:32.243Z,10.00
2019-05-12T00:38:00.984Z,9.50
2019-05-12T00:40:29.674Z,9.03
2019-05-12T00:42:58.228Z,9.13
2019-05-12T00:45:29.300Z,9.40
2019-05-12T00:47:58.188Z,9.27
2019-05-12T00:50:28.870Z,9.50
2019-05-12T00:52:58.180Z,8.90
2019-05-12T00:55:29.038Z,8.30
2019-05-12T00:57:58.121Z,9.57
2019-05-12T01:00:29.405Z,8.90
2019-05-12T01:02:58.340Z,7.53
2019-05-12T01:05:29.135Z,6.57
2019-05-12T01:07:58.342Z,6.03
2019-05-12T01:10:28.571Z,5.57
2019-05-12T01:12:58.232Z,5.77
2019-05-12T01:15:28.773Z,5.47
2019-05-12T01:17:58.535Z,4.90
2019-05-12T01:20:28.321Z,5.33
2019-05-12T01:22:57.899Z,4.80
2019-05-12T01:25:29.138Z,4.97
2019-05-12T01:27:58.849Z,4.37
2019-05-12T01:30:28.463Z,4.90
2019-05-12T01:32:58.227Z,4.70
2019-05-12T01:35:28.301Z,5.13
2019-05-12T01:38:01.199Z,5.07
2019-05-12T01:40:28.667Z,4.53
2019-05-12T01:42:58.522Z,5.07
2019-05-12T01:45:28.717Z,4.67
2019-05-12T01:47:59.028Z,4.40
2019-05-12T01:50:28.348Z,4.73
2019-05-12T01:52:58.716Z,5.13
2019-05-12T01:55:28.265Z,4.60
2019-05-12T01:57:57.769Z,5.40
2019-05-12T02:00:28.439Z,4.90
2019-05-12T02:02:58.509Z,4.70
2019-05-12T02:05:28.237Z,4.97
2019-05-12T02:07:58.786Z,5.00
2019-05-12T02:10:28.571Z,4.73
2019-05-12T02:12:59.393Z,4.97
2019-05-12T02:15:28.201Z,5.37
2019-05-12T02:17:58.857Z,4.73
2019-05-12T02:20:28.803Z,4.93
2019-05-12T02:22:58.331Z,5.37
2019-05-12T02:25:28.795Z,4.77
2019-05-12T02:27:58.398Z,5.43
2019-05-12T02:30:30.496Z,5.07
2019-05-12T02:32:59.124Z,5.10
2019-05-12T02:35:27.884Z,4.70
2019-05-12T02:37:56.444Z,5.53
2019-05-12T02:40:25.570Z,5.10
2019-05-12T02:42:55.127Z,4.83
2019-05-12T02:45:25.893Z,4.50
2019-05-12T02:47:54.737Z,5.40
2019-05-12T02:50:36.000Z,5.33
2019-05-12T02:53:05.843Z,5.20
2019-05-12T02:55:35.462Z,5.27
2019-05-12T02:58:05.395Z,5.77
2019-05-12T03:00:36.325Z,5.40
2019-05-12T03:03:07.602Z,5.50
2019-05-12T03:05:37.876Z,5.27
2019-05-12T03:08:06.575Z,5.83
2019-05-12T03:10:36.606Z,5.43
2019-05-12T03:13:05.282Z,5.70
2019-05-12T03:15:36.666Z,5.97
2019-05-12T03:18:06.031Z,6.10
2019-05-12T03:20:35.819Z,5.80
2019-05-12T03:23:07.081Z,5.97
2019-05-12T03:25:36.883Z,6.47
2019-05-12T03:28:08.455Z,6.67
2019-05-12T03:30:39.453Z,6.73
2019-05-12T03:33:09.655Z,6.37
2019-05-12T03:35:42.659Z,6.40
2019-05-12T03:38:07.261Z,6.80
2019-05-12T03:40:38.566Z,7.00
2019-05-12T03:43:06.139Z,7.60
2019-05-12T03:45:35.835Z,7.27
2019-05-12T03:48:05.851Z,6.80
2019-05-12T03:50:35.954Z,6.90
2019-05-12T03:53:10.171Z,7.07
2019-05-12T03:55:41.504Z,7.70
2019-05-12T03:58:06.678Z,7.70
2019-05-12T04:00:36.310Z,7.60
2019-05-12T04:03:05.777Z,7.27
2019-05-12T04:05:35.624Z,7.90
2019-05-12T04:08:06.428Z,7.70
2019-05-12T04:10:36.462Z,7.30
2019-05-12T04:13:05.845Z,7.50
2019-05-12T04:15:35.343Z,8.50
2019-05-12T04:18:06.032Z,7.20
2019-05-12T04:20:36.043Z,7.67
2019-05-12T04:23:06.206Z,8.13
2019-05-12T04:25:47.669Z,7.40
2019-05-12T04:28:05.552Z,7.40
2019-05-12T04:30:35.419Z,6.90
2019-05-12T04:33:06.899Z,7.13
2019-05-12T04:35:37.055Z,7.27
2019-05-12T04:38:05.791Z,7.17
2019-05-12T04:40:35.993Z,7.20
2019-05-12T04:43:06.459Z,6.93
2019-05-12T04:45:35.723Z,7.80
2019-05-12T04:48:06.137Z,7.30
2019-05-12T04:50:35.993Z,6.80
2019-05-12T04:53:06.489Z,6.70
2019-05-12T04:55:36.514Z,7.67
2019-05-12T04:58:05.936Z,7.60
2019-05-12T05:00:35.693Z,7.00
2019-05-12T05:03:05.756Z,7.30
2019-05-12T05:05:36.453Z,6.60
2019-05-12T05:08:06.827Z,6.83
2019-05-12T05:10:35.410Z,6.43
2019-05-12T05:13:05.164Z,6.60
2019-05-12T05:15:35.281Z,6.80
2019-05-12T05:18:06.318Z,6.37
2019-05-12T05:20:34.844Z,7.00
2019-05-12T05:23:04.169Z,7.40
2019-05-12T05:25:35.173Z,7.53
2019-05-12T05:28:04.855Z,6.90
2019-05-12T05:30:34.256Z,7.70
2019-05-12T05:33:04.486Z,7.67
2019-05-12T05:35:39.369Z,7.13
2019-05-12T05:38:05.580Z,7.70
2019-05-12T05:40:36.077Z,7.33
2019-05-12T05:43:12.505Z,7.33
2019-05-12T05:45:35.610Z,6.73
2019-05-12T05:48:09.768Z,6.73
2019-05-12T05:50:34.967Z,6.97
2019-05-12T05:53:04.037Z,6.70
2019-05-12T05:55:34.338Z,7.17
2019-05-12T05:58:10.322Z,6.97
2019-05-12T06:00:34.695Z,7.53
2019-05-12T06:03:05.635Z,7.77
2019-05-12T06:05:38.216Z,6.73
2019-05-12T06:08:09.530Z,6.40
2019-05-12T06:10:39.847Z,6.00
2019-05-12T06:13:05.227Z,6.00
2019-05-12T06:15:35.642Z,6.60
2019-05-12T06:18:04.435Z,7.53
2019-05-12T06:20:37.562Z,5.63
2019-05-12T06:23:04.383Z,5.90
2019-05-12T06:25:46.323Z,5.93
2019-05-12T06:28:08.547Z,5.30
2019-05-12T06:30:43.915Z,5.50
2019-05-12T06:33:05.852Z,4.83
2019-05-12T06:35:37.620Z,6.10
2019-05-12T06:38:05.215Z,5.90
2019-05-12T06:40:40.288Z,6.27
2019-05-12T06:43:04.735Z,5.43
2019-05-12T06:45:41.744Z,5.63
2019-05-12T06:48:04.380Z,4.97
2019-05-12T06:50:38.912Z,5.20
2019-05-12T06:53:05.043Z,4.83
2019-05-12T06:55:39.185Z,5.50
2019-05-12T06:58:05.334Z,5.07
2019-05-12T07:00:35.253Z,5.00
2019-05-12T07:03:04.913Z,5.23
2019-05-12T07:05:38.420Z,4.53
2019-05-12T07:08:04.774Z,5.00
2019-05-12T07:10:39.510Z,4.90
2019-05-12T07:13:05.795Z,4.90
2019-05-12T07:15:39.850Z,4.77
2019-05-12T07:18:10.282Z,5.93
2019-05-12T07:20:39.460Z,5.57
2019-05-12T07:23:08.304Z,5.37
2019-05-12T07:25:37.105Z,6.37
2019-05-12T07:28:07.992Z,5.63
2019-05-12T07:30:36.115Z,5.83
2019-05-12T07:33:05.102Z,5.60
2019-05-12T07:35:34.397Z,5.80
2019-05-12T07:38:04.547Z,5.33
2019-05-12T07:40:37.176Z,5.10
2019-05-12T07:43:04.376Z,5.17
2019-05-12T07:45:34.006Z,4.73
2019-05-12T07:48:08.379Z,5.23
2019-05-12T07:50:34.813Z,5.83
2019-05-12T07:53:04.270Z,5.43
2019-05-12T07:55:34.182Z,5.07
2019-05-12T07:58:14.089Z,5.63
2019-05-12T08:00:34.192Z,5.30
2019-05-12T08:03:08.058Z,5.30
2019-05-12T08:05:33.790Z,4.93
2019-05-12T08:08:08.714Z,4.70
2019-05-12T08:10:34.368Z,5.03
2019-05-12T08:13:04.364Z,5.00
2019-05-12T08:15:34.034Z,4.27
2019-05-12T08:18:07.698Z,4.90
2019-05-12T08:20:34.352Z,4.80
2019-05-12T08:23:08.875Z,4.90
2019-05-12T08:25:35.414Z,5.43
2019-05-12T08:28:14.879Z,4.90
2019-05-12T08:30:40.480Z,4.50
2019-05-12T08:33:09.712Z,4.90
2019-05-12T08:35:38.496Z,4.17
2019-05-12T08:38:07.536Z,4.87
2019-05-12T08:40:39.911Z,4.73
2019-05-12T08:43:10.395Z,4.17
2019-05-12T08:45:38.242Z,4.57
2019-05-12T08:48:10.192Z,4.50
2019-05-12T08:50:37.155Z,4.30
2019-05-12T08:53:05.743Z,3.93
2019-05-12T08:55:35.804Z,4.73
2019-05-12T08:58:04.936Z,4.27
2019-05-12T09:00:46.591Z,4.70
2019-05-12T09:03:09.444Z,4.57
2019-05-12T09:05:38.780Z,4.60
2019-05-12T09:08:07.605Z,4.67
2019-05-12T09:10:46.687Z,5.20
2019-05-12T09:13:14.956Z,4.50
2019-05-12T09:15:43.860Z,4.60
2019-05-12T09:18:14.468Z,5.17
2019-05-12T09:20:48.736Z,4.23
2019-05-12T09:23:13.743Z,4.50
2019-05-12T09:25:45.245Z,5.27
2019-05-12T09:28:13.784Z,4.83
2019-05-12T09:30:47.629Z,4.97
2019-05-12T09:33:14.044Z,5.50
2019-05-12T09:35:43.738Z,5.30
2019-05-12T09:38:21.326Z,5.20
2019-05-12T09:40:43.810Z,5.07
2019-05-12T09:43:13.671Z,6.07
2019-05-12T09:45:51.460Z,5.70
2019-05-12T09:48:14.047Z,5.67
2019-05-12T09:50:46.292Z,5.77
2019-05-12T09:53:14.419Z,6.03
2019-05-12T09:55:43.889Z,5.87
2019-05-12T09:58:15.820Z,5.77
2019-05-12T10:00:43.617Z,5.97
2019-05-12T10:03:13.894Z,5.93
2019-05-12T10:05:44.237Z,5.57
2019-05-12T10:08:13.915Z,6.00
2019-05-12T10:10:46.906Z,5.80
2019-05-12T10:13:14.814Z,6.03
2019-05-12T10:15:43.359Z,6.43
2019-05-12T10:18:14.135Z,5.87
2019-05-12T10:20:44.167Z,5.87
2019-05-12T10:23:18.022Z,6.10
2019-05-12T10:25:44.660Z,6.37
2019-05-12T10:28:13.894Z,5.90
2019-05-12T10:30:47.298Z,6.70
2019-05-12T10:33:13.930Z,6.17
2019-05-12T10:35:43.910Z,6.07
2019-05-12T10:38:13.790Z,6.33
2019-05-12T10:40:44.458Z,5.10
2019-05-12T10:43:12.651Z,5.77
2019-05-12T10:45:41.292Z,5.97
2019-05-12T10:48:09.852Z,5.90
2019-05-12T10:50:38.433Z,6.17
2019-05-12T10:53:09.832Z,5.63
2019-05-12T10:55:37.267Z,5.53
2019-05-12T10:58:07.086Z,6.20
2019-05-12T11:00:35.976Z,5.80
2019-05-12T11:03:10.776Z,5.87
2019-05-12T11:05:34.955Z,6.00
2019-05-12T11:08:11.113Z,5.47
2019-05-12T11:10:33.870Z,5.87
2019-05-12T11:13:08.535Z,6.23
2019-05-12T11:15:34.229Z,5.90
2019-05-12T11:18:04.725Z,6.90
2019-05-12T11:20:34.276Z,6.10
2019-05-12T11:23:03.608Z,6.10
2019-05-12T11:25:33.984Z,7.63
2019-05-12T11:28:03.800Z,6.27
2019-05-12T11:30:34.513Z,6.63
2019-05-12T11:33:04.326Z,5.80
2019-05-12T11:35:34.007Z,5.83
2019-05-12T11:38:04.445Z,5.53
2019-05-12T11:40:34.814Z,5.57
2019-05-12T11:43:04.037Z,5.77
2019-05-12T11:45:33.549Z,5.40
2019-05-12T11:48:05.796Z,5.43
2019-05-12T11:50:33.003Z,5.80
2019-05-12T11:53:03.967Z,6.80
2019-05-12T11:55:32.689Z,5.73
2019-05-12T11:58:09.078Z,4.97
2019-05-12T12:00:34.005Z,5.13
2019-05-12T12:03:03.749Z,5.20
2019-05-12T12:05:34.499Z,5.57
2019-05-12T12:08:03.928Z,5.63
2019-05-12T12:10:35.426Z,5.27
2019-05-12T12:13:03.697Z,5.33
2019-05-12T12:15:34.411Z,5.77
2019-05-12T12:18:03.888Z,4.90
2019-05-12T12:20:33.814Z,5.53
2019-05-12T12:23:08.766Z,6.17
2019-05-12T12:25:34.130Z,5.63
2019-05-12T12:28:04.295Z,5.30
2019-05-12T12:30:34.002Z,6.07
2019-05-12T12:33:04.119Z,5.00
2019-05-12T12:35:34.680Z,5.37
2019-05-12T12:38:03.674Z,5.23
2019-05-12T12:40:32.575Z,6.00
2019-05-12T12:43:03.481Z,7.27
2019-05-12T12:45:36.845Z,6.77
2019-05-12T12:48:03.531Z,5.67
2019-05-12T12:50:34.215Z,6.80
2019-05-12T12:53:03.046Z,5.33
2019-05-12T12:55:31.614Z,6.10
2019-05-12T12:58:00.164Z,5.43
2019-05-12T13:00:32.727Z,5.80
2019-05-12T13:02:59.068Z,5.80
2019-05-12T13:05:27.631Z,5.77
2019-05-12T13:07:56.174Z,5.30
2019-05-12T13:10:24.965Z,5.57
2019-05-12T13:12:56.554Z,5.70
2019-05-12T13:15:24.678Z,4.97
2019-05-12T13:17:53.289Z,5.50
2019-05-12T13:20:23.840Z,5.40
2019-05-12T13:22:53.616Z,5.90
2019-05-12T13:25:22.222Z,4.80
2019-05-12T13:27:50.776Z,5.30
2019-05-12T13:30:21.417Z,4.80
2019-05-12T13:32:49.684Z,6.10
2019-05-12T13:35:20.277Z,4.93
2019-05-12T13:37:50.421Z,4.27
2019-05-12T13:40:19.089Z,4.80
2019-05-12T13:42:47.651Z,4.60
2019-05-12T13:45:16.642Z,4.90
2019-05-12T13:47:45.211Z,4.80
2019-05-12T13:50:21.821Z,5.23
2019-05-12T13:52:44.695Z,5.20
2019-05-12T13:55:13.656Z,5.30
2019-05-12T13:57:46.171Z,4.87
2019-05-12T14:00:14.355Z,6.00
2019-05-12T14:02:44.137Z,4.43
2019-05-12T14:05:15.228Z,4.50
2019-05-12T14:07:43.899Z,4.87
2019-05-12T14:10:14.052Z,5.43
2019-05-12T14:12:44.017Z,4.70
2019-05-12T14:15:14.223Z,4.93
2019-05-12T14:17:43.519Z,4.70
2019-05-12T14:20:15.695Z,5.07
2019-05-12T14:22:44.803Z,4.27
2019-05-12T14:25:15.133Z,4.17
2019-05-12T14:27:44.300Z,4.27
2019-05-12T14:30:14.497Z,6.10
2019-05-12T14:32:44.075Z,4.77
2019-05-12T14:35:13.177Z,4.87
2019-05-12T14:37:45.720Z,4.53
2019-05-12T14:40:13.546Z,4.50
2019-05-12T14:42:44.241Z,5.03
2019-05-12T14:45:13.878Z,5.50
2019-05-12T14:47:43.646Z,5.27
2019-05-12T14:50:14.101Z,4.63
2019-05-12T14:52:43.949Z,4.73
2019-05-12T14:55:13.838Z,4.63
2019-05-12T14:57:42.850Z,4.07
2019-05-12T15:00:17.663Z,4.67
2019-05-12T15:02:43.730Z,4.63
2019-05-12T15:05:14.051Z,4.77
2019-05-12T15:07:51.128Z,4.17
2019-05-12T15:10:14.247Z,4.50
2019-05-12T15:12:44.060Z,4.00
2019-05-12T15:15:20.323Z,4.43
2019-05-12T15:17:44.409Z,4.50
2019-05-12T15:20:13.861Z,4.70
2019-05-12T15:22:51.276Z,4.83
2019-05-12T15:25:14.599Z,4.70
2019-05-12T15:27:46.048Z,3.87
2019-05-12T15:30:22.939Z,4.40
2019-05-12T15:32:43.955Z,4.27
2019-05-12T15:35:13.722Z,4.97
2019-05-12T15:37:43.543Z,4.37
2019-05-12T15:40:14.551Z,4.63
2019-05-12T15:42:45.212Z,5.00
2019-05-12T15:45:16.597Z,4.70
2019-05-12T15:47:46.022Z,4.97
2019-05-12T15:50:15.080Z,4.43
2019-05-12T15:52:45.593Z,4.50
2019-05-12T15:55:17.613Z,4.47
2019-05-12T15:57:44.572Z,6.27
2019-05-12T16:00:16.771Z,4.87
2019-05-12T16:02:44.385Z,4.93
2019-05-12T16:05:14.568Z,5.00
2019-05-12T16:07:45.816Z,4.20
2019-05-12T16:10:14.856Z,4.60
2019-05-12T16:12:43.926Z,4.90
2019-05-12T16:15:17.083Z,4.23
2019-05-12T16:17:44.153Z,3.90
2019-05-12T16:20:14.217Z,11.27
2019-05-12T16:22:45.093Z,24.63
2019-05-12T16:25:15.149Z,20.80
2019-05-12T16:27:44.734Z,6.83
2019-05-12T16:30:14.229Z,5.40
2019-05-12T16:32:47.665Z,4.63
2019-05-12T16:35:14.422Z,4.67
2019-05-12T16:37:44.163Z,4.60
2019-05-12T16:40:14.023Z,4.40
2019-05-12T16:42:50.371Z,4.60
2019-05-12T16:45:14.680Z,4.63
2019-05-12T16:47:44.733Z,4.50
2019-05-12T16:50:19.666Z,5.13
2019-05-12T16:52:45.644Z,5.03
2019-05-12T16:55:14.548Z,4.40
2019-05-12T16:57:51.207Z,4.13
2019-05-12T17:00:14.242Z,4.07
2019-05-12T17:02:52.412Z,4.07
2019-05-12T17:05:18.482Z,4.33
2019-05-12T17:07:44.250Z,4.10
2019-05-12T17:10:16.527Z,7.10
2019-05-12T17:12:44.080Z,4.90
2019-05-12T17:15:15.074Z,5.70
2019-05-12T17:17:44.701Z,4.30
2019-05-12T17:20:14.712Z,4.23
2019-05-12T17:22:54.712Z,4.00
2019-05-12T17:25:15.432Z,4.20
2019-05-12T17:27:44.828Z,4.50
2019-05-12T17:30:14.444Z,4.80
2019-05-12T17:32:57.148Z,5.30
2019-05-12T17:35:14.602Z,4.27
2019-05-12T17:37:43.730Z,4.53
2019-05-12T17:40:15.695Z,4.20
2019-05-12T17:42:44.093Z,4.60
2019-05-12T17:45:20.247Z,5.10
2019-05-12T17:47:44.562Z,4.40
2019-05-12T17:50:14.004Z,4.73
2019-05-12T17:52:45.035Z,4.27
2019-05-12T17:55:14.517Z,4.33
2019-05-12T17:57:43.953Z,4.33
2019-05-12T18:00:14.654Z,5.50
2019-05-12T18:02:44.045Z,8.63
2019-05-12T18:05:15.543Z,10.13
2019-05-12T18:07:44.580Z,8.10
2019-05-12T18:10:13.784Z,7.70
2019-05-12T18:12:45.066Z,6.37
2019-05-12T18:15:14.983Z,6.13
2019-05-12T18:17:47.631Z,4.80
2019-05-12T18:20:15.542Z,4.60
2019-05-12T18:22:46.934Z,4.90
2019-05-12T18:25:15.068Z,4.93
2019-05-12T18:27:50.176Z,7.10
2019-05-12T18:30:19.109Z,5.00
2019-05-12T18:32:46.114Z,29.40
2019-05-12T18:35:14.778Z,13.97
2019-05-12T18:37:43.415Z,10.77
2019-05-12T18:40:14.423Z,16.00
2019-05-12T18:42:42.432Z,15.13
2019-05-12T18:45:14.994Z,15.80
2019-05-12T18:47:44.003Z,10.90
2019-05-12T18:50:14.164Z,10.97
2019-05-12T18:52:45.903Z,9.20
2019-05-12T18:55:13.254Z,8.03
2019-05-12T18:57:46.164Z,7.93
2019-05-12T19:00:18.492Z,6.70
2019-05-12T19:02:50.837Z,7.70
2019-05-12T19:05:21.411Z,14.73
2019-05-12T19:07:48.261Z,9.07
2019-05-12T19:10:16.980Z,9.10
2019-05-12T19:12:45.559Z,8.20
2019-05-12T19:15:17.249Z,8.33
2019-05-12T19:17:46.046Z,8.60
2019-05-12T19:20:15.042Z,8.43
2019-05-12T19:22:49.407Z,7.40
2019-05-12T19:25:18.704Z,7.30
2019-05-12T19:27:48.079Z,8.40
2019-05-12T19:30:19.426Z,7.77
2019-05-12T19:32:46.991Z,7.60
2019-05-12T19:35:20.122Z,10.37
2019-05-12T19:37:46.056Z,13.90
2019-05-12T19:40:17.625Z,11.60
2019-05-12T19:42:45.447Z,8.73
2019-05-12T19:45:19.581Z,8.50
2019-05-12T19:47:44.607Z,8.17
2019-05-12T19:50:18.272Z,12.57
2019-05-12T19:52:43.795Z,12.27
2019-05-12T19:55:14.072Z,12.00
2019-05-12T19:57:44.239Z,11.73
2019-05-12T20:00:14.111Z,9.87
2019-05-12T20:02:42.912Z,8.30
2019-05-12T20:05:16.744Z,7.40
2019-05-12T20:07:44.348Z,7.23
2019-05-12T20:10:15.725Z,6.73
2019-05-12T20:12:43.622Z,7.00
2019-05-12T20:15:15.172Z,5.70
2019-05-12T20:17:44.651Z,5.40
2019-05-12T20:20:13.824Z,5.17
2019-05-12T20:22:44.062Z,4.80
2019-05-12T20:25:14.615Z,4.77
2019-05-12T20:27:44.585Z,5.03
2019-05-12T20:30:20.997Z,5.00
2019-05-12T20:32:47.435Z,4.90
2019-05-12T20:35:16.124Z,4.87
2019-05-12T20:37:53.342Z,4.80
2019-05-12T20:40:16.754Z,4.73
2019-05-12T20:43:06.984Z,4.80
2019-05-12T20:45:15.697Z,4.10
2019-05-12T20:47:45.396Z,4.23
2019-05-12T20:50:14.964Z,4.20
2019-05-12T20:52:48.907Z,4.93
2019-05-12T20:55:14.769Z,4.80
2019-05-12T20:57:51.908Z,10.17
2019-05-12T21:00:14.374Z,8.07
2019-05-12T21:02:44.237Z,7.63
2019-05-12T21:05:16.610Z,7.40
2019-05-12T21:07:43.763Z,6.63
2019-05-12T21:10:14.688Z,7.33
2019-05-12T21:12:46.225Z,7.30
2019-05-12T21:15:20.297Z,8.53
2019-05-12T21:17:52.211Z,7.63
2019-05-12T21:20:16.628Z,8.40
2019-05-12T21:22:44.976Z,8.23
2019-05-12T21:25:13.867Z,8.30
2019-05-12T21:27:46.980Z,8.87
2019-05-12T21:30:15.039Z,8.67
2019-05-12T21:32:47.097Z,9.30
2019-05-12T21:35:21.874Z,8.30
2019-05-12T21:37:48.331Z,8.63
2019-05-12T21:40:15.689Z,9.03
2019-05-12T21:42:44.849Z,9.13
2019-05-12T21:45:20.151Z,9.03
2019-05-12T21:47:45.988Z,8.97
2019-05-12T21:50:14.675Z,9.53
2019-05-12T21:52:44.697Z,10.67
2019-05-12T21:55:21.746Z,11.10
2019-05-12T21:57:44.259Z,10.03
2019-05-12T22:00:20.102Z,10.07
2019-05-12T22:02:48.847Z,11.10
2019-05-12T22:05:23.871Z,10.50
2019-05-12T22:07:47.758Z,10.67
2019-05-12T22:10:25.219Z,15.37
2019-05-12T22:12:46.680Z,19.60
2019-05-12T22:15:24.330Z,24.37
2019-05-12T22:18:05.226Z,20.93
2019-05-12T22:20:35.600Z,20.47
2019-05-12T22:23:09.936Z,15.13
2019-05-12T22:25:35.122Z,11.90
2019-05-12T22:28:08.456Z,10.17
2019-05-12T22:30:34.831Z,9.37
2019-05-12T22:33:09.163Z,9.77
2019-05-12T22:35:34.411Z,8.93
2019-05-12T22:38:09.442Z,9.40
2019-05-12T22:40:33.283Z,8.67
2019-05-12T22:43:04.537Z,8.17
2019-05-12T22:45:37.789Z,8.30
2019-05-12T22:48:04.107Z,8.60
2019-05-12T22:50:35.200Z,9.10
2019-05-12T22:53:04.452Z,10.23
2019-05-12T22:55:36.070Z,9.27
2019-05-12T22:58:04.841Z,9.07
2019-05-12T23:00:34.435Z,9.20
2019-05-12T23:03:09.324Z,8.20
2019-05-12T23:05:33.376Z,8.03
2019-05-12T23:08:06.219Z,7.87
2019-05-12T23:10:32.331Z,8.03
2019-05-12T23:13:04.351Z,7.83
2019-05-12T23:15:33.505Z,8.03
2019-05-12T23:18:04.215Z,8.60
2019-05-12T23:20:33.342Z,8.53
2019-05-12T23:23:03.924Z,8.43
2019-05-12T23:25:33.755Z,7.23
2019-05-12T23:28:08.389Z,7.83
2019-05-12T23:30:32.832Z,7.13
2019-05-12T23:33:03.803Z,7.30
2019-05-12T23:35:37.290Z,6.77
2019-05-12T23:38:04.199Z,7.27
2019-05-12T23:40:34.522Z,7.83
2019-05-12T23:43:04.011Z,7.03
2019-05-12T23:45:34.649Z,7.30
2019-05-12T23:48:04.159Z,7.23
2019-05-12T23:50:33.146Z,7.50
2019-05-12T23:53:03.826Z,8.03
2019-05-12T23:55:34.933Z,7.53
2019-05-12T23:58:04.206Z,8.03
